Flight Track Log - Related Links

Times and Time Zones

All times are in EDT time to prevent confusion due to time zone crossing. See the N789EX flight status page for this flight to view local times or setup timezone preferences in your user account.

Time Position Orientation Groundspeed Altitude Reporting Facility
EDT Latitude Longitude Course Direction KTS MPH feet Rate Location/Type
Thu 12:23:30 PM 47.5080 -122.2820 143° Southeast 215 247 1,400  Level FlightAware ADS-B
Thu 12:23:57 PM 47.4900 -122.2620 143° Southeast 215 247 1,400 3,568 Level FlightAware ADS-B
Thu 12:24:44 PM 47.4740 -122.1450 101° East 267 307 5,800 4,065 Climbing FlightAware ADS-B
Thu 12:25:30 PM 47.5270 -122.1390 North 262 302 7,700 3,450 Climbing FlightAware ADS-B
Thu 12:26:04 PM 47.5680 -122.1530 347° North 274 315 10,400 4,737 Climbing FlightAware ADS-B
Thu 12:26:46 PM 47.6190 -122.1720 346° North 255 293 13,700 4,537 Climbing FlightAware ADS-B
Thu 12:27:26 PM 47.6630 -122.1870 347° North 250 288 16,600 3,786 Climbing FlightAware ADS-B
Thu 12:28:10 PM 47.7120 -122.2050 346° North 260 299 19,000 3,000 Climbing FlightAware ADS-B
Thu 12:28:52 PM 47.7650 -122.2240 346° North 285 328 20,900 2,108 Climbing FlightAware ADS-B
Thu 12:29:24 PM 47.8090 -122.2390 347° North 324 373 21,600 2,106 Climbing FlightAware ADS-B
Thu 12:30:26 PM 47.9060 -122.2690 348° North 366 421 24,200 2,625 Climbing FlightAware ADS-B
Thu 12:31:00 PM 47.9640 -122.2460 15° North 413 475 25,800 2,677 Climbing FlightAware ADS-B
Thu 12:31:31 PM 48.0180 -122.2070 26° Northeast 421 484 27,100 2,270 Climbing FlightAware ADS-B
Thu 12:32:14 PM 48.0880 -122.1270 37° Northeast 477 549 28,600 2,174 Climbing FlightAware ADS-B
Thu 12:32:40 PM 48.1150 -122.0500 62° Northeast 512 589 29,600 1,957 Climbing FlightAware ADS-B
Thu 12:33:00 PM 48.1230 -121.9730 81° East 546 628 30,100 1,569 Climbing FlightAware ADS-B
Thu 12:33:45 PM 48.1150 -121.8030 94° East 565 650 31,300 1,553 Climbing FlightAware ADS-B
Thu 12:34:25 PM 48.1060 -121.6450 95° East 576 663 32,300 1,543 Climbing FlightAware ADS-B
Thu 12:34:55 PM 48.1000 -121.5290 94° East 581 669 33,100 1,886 Climbing FlightAware ADS-B
Thu 12:35:35 PM 48.0920 -121.3680 94° East 576 663 34,500 2,609 Climbing FlightAware ADS-B
Thu 12:36:04 PM 48.0860 -121.2520 94° East 556 640 36,100 2,585 Climbing FlightAware ADS-B
Thu 12:36:40 PM 48.0790 -121.1150 94° East 548 631 37,300 1,350 Climbing FlightAware ADS-B
Thu 12:37:24 PM 48.0700 -120.9510 95° East 550 633 37,900 419 Climbing FlightAware ADS-B
Thu 12:38:06 PM 48.0610 -120.7870 95° East 573 659 37,900  Level FlightAware ADS-B
Thu 12:38:46 PM 48.0520 -120.6300 95° East 586 674 37,900  Level FlightAware ADS-B
Thu 12:39:17 PM 48.0450 -120.5040 95° East 594 684 37,900  Level FlightAware ADS-B
Thu 12:39:54 PM 48.0360 -120.3520 95° East 595 685 37,900  Level FlightAware ADS-B
Thu 12:40:32 PM 48.0260 -120.1980 95° East 596 686 37,900  Level FlightAware ADS-B
Thu 12:41:16 PM 48.0150 -120.0170 95° East 591 680 37,900 56 Level FlightAware ADS-B
Thu 12:42:20 PM 47.9990 -119.7710 95° East 534 615 38,000  Climbing FlightAware ADS-B
Thu 12:43:00 PM 47.9900 -119.6300 95° East 533 613 37,900 -83 Descending FlightAware ADS-B
Thu 12:43:32 PM 47.9820 -119.5110 96° East 544 626 37,900 97 Level FlightAware ADS-B
Thu 12:44:02 PM 47.9740 -119.4000 96° East 536 617 38,000  Climbing FlightAware ADS-B
Thu 12:44:36 PM 47.9650 -119.2740 96° East 537 618 37,900 -82 Descending FlightAware ADS-B
Thu 12:45:15 PM 47.9550 -119.1300 96° East 542 624 37,900 143 Level FlightAware ADS-B
Thu 12:46:00 PM 47.9430 -118.9630 96° East 518 596 38,100 72 Climbing FlightAware ADS-B
Thu 12:46:38 PM 47.9330 -118.8350 97° East 485 558 38,000  Descending FlightAware ADS-B
Thu 12:47:30 PM 47.9210 -118.6660 96° East 458 527 38,100 67 Climbing FlightAware ADS-B
Thu 12:48:07 PM 47.9120 -118.5530 97° East 453 521 38,100  Level FlightAware ADS-B
Thu 12:48:49 PM 47.9020 -118.4240 97° East 452 520 38,100  Level FlightAware ADS-B
Thu 12:49:26 PM 47.8930 -118.3090 97° East 449 517 38,100  Level FlightAware ADS-B
Thu 12:50:03 PM 47.8860 -118.2070 96° East 449 517 38,100  Level FlightAware ADS-B
Thu 12:50:51 PM 47.8770 -118.0810 96° East 449 517 38,100  Level FlightAware ADS-B
Thu 12:51:47 PM 47.8670 -117.9350 96° East 449 517 38,100  Level FlightAware ADS-B
Thu 12:52:12 PM 47.8620 -117.8690 96° East 449 517 38,100  Level FlightAware ADS-B
Thu 12:52:46 PM 47.8560 -117.7800 96° East 449 517 38,100  Level FlightAware ADS-B
Thu 12:53:36 PM 47.8470 -117.6490 96° East 449 517 38,100  Level FlightAware ADS-B
Thu 12:54:12 PM 47.8400 -117.5550 96° East 449 517 38,100  Level FlightAware ADS-B
Thu 12:54:46 PM 47.8340 -117.4660 96° East 449 517 38,100  Level FlightAware ADS-B
Thu 12:55:22 PM 47.8270 -117.3720 96° East 449 517 38,100  Level FlightAware ADS-B
Thu 12:56:10 PM 47.8180 -117.2460 96° East 449 517 38,100  Level FlightAware ADS-B
Thu 12:56:46 PM 47.8110 -117.1520 96° East 449 517 38,100  Level FlightAware ADS-B
Thu 12:57:23 PM 47.8050 -117.0560 95° East 449 517 38,100  Level FlightAware ADS-B
Thu 12:57:59 PM 47.7980 -116.9610 96° East 449 517 38,100  Level FlightAware ADS-B
Thu 12:58:36 PM 47.7910 -116.8650 96° East 449 517 38,100  Level FlightAware ADS-B
Thu 12:59:25 PM 47.7820 -116.7370 96° East 449 517 38,100  Level FlightAware ADS-B
Thu 12:59:37 PM 47.7800 -116.7050 95° East 449 517 38,100 -14,588 Level FlightAware ADS-B
Thu 01:00:16 PM 47.7697 -116.2928 95° East 526 605 25,700 -9,180 Descending Seattle Center
Thu 01:01:17 PM 47.8569 -116.3089 353° North 419 482 22,800 -2,754 Descending Seattle Center
Thu 01:02:18 PM 47.8567 -116.4556 270° West 387 445 20,100 -2,557 Descending Seattle Center
Thu 01:03:19 PM 47.8403 -116.5989 260° West 361 415 17,600 -2,311 Descending Seattle Center
Thu 01:04:20 PM 47.8578 -116.7347 281° West 338 389 15,400 -2,361 Descending Seattle Center
Thu 01:05:21 PM 47.8806 -116.8631 285° West 326 375 12,800 -1,574 Descending Seattle Center
Thu 01:06:22 PM 47.9081 -116.9808 289° West 304 350 12,200 -295 Descending Seattle Center
Thu 01:07:23 PM 47.9314 -117.0903 288° West 285 328 12,200  Level Seattle Center
Thu 01:08:24 PM 47.9589 -117.2364 286° West 304 350 12,200 -1,033 Level Seattle Center
Thu 01:09:25 PM 48.0064 -117.3406 304° West 305 351 10,100 -1,131 Descending Seattle Center
Thu 01:10:26 PM 48.0181 -117.4594 278° West 290 334 9,900 -98 Descending Seattle Center
Thu 01:11:27 PM 48.0308 -117.5472 282° West 224 258 9,900  Level Seattle Center
Thu 01:12:28 PM 48.0397 -117.6072 283° West 154 177 9,900  Level Seattle Center
Thu 01:13:29 PM 48.0419 -117.6619 273° West 135 155 9,900  Level Seattle Center
Thu 01:14:30 PM 48.0397 -117.7194 267° West 138 159 9,900  Level Seattle Center
Thu 01:15:31 PM 48.0322 -117.7775 259° West 142 163 9,900  Level Seattle Center
Thu 01:16:32 PM 48.0272 -117.8344 263° West 140 161 9,900  Level Seattle Center
Thu 01:17:33 PM 48.0244 -117.8906 266° West 136 157 9,900  Level Seattle Center
Thu 01:18:34 PM 48.0197 -117.9467 263° West 136 157 9,900 98 Level Seattle Center
Thu 01:19:35 PM 48.0128 -118.0156 261° West 139 160 10,100 49 Climbing Seattle Center
Thu 01:20:36 PM 48.0069 -118.0719 261° West 139 160 10,000 -148 Descending Seattle Center
Thu 01:21:37 PM 48.0058 -118.1297 268° West 140 161 9,800 -49 Descending Seattle Center
Thu 01:22:38 PM 48.0119 -118.1872 279° West 140 161 9,900 98 Climbing Seattle Center
Thu 01:23:39 PM 48.0183 -118.2447 279° West 140 161 10,000 50 Climbing Seattle Center
Thu 01:24:39 PM 48.0131 -118.3053 263° West 146 168 10,000 -50 Level Seattle Center
Thu 01:25:40 PM 48.0064 -118.3639 260° West 144 166 9,900 -98 Descending Seattle Center
Thu 01:26:41 PM 48.0003 -118.4244 261° West 147 169 9,800 49 Descending Seattle Center
Thu 01:27:42 PM 47.9906 -118.4861 257° West 153 176 10,000 49 Climbing Seattle Center
Thu 01:28:43 PM 47.9861 -118.5531 264° West 162 186 9,900  Descending Seattle Center
Thu 01:29:44 PM 47.9850 -118.6189 269° West 160 184 10,000 148 Climbing Seattle Center
Thu 01:30:45 PM 47.9822 -118.6847 266° West 159 183 10,200  Climbing Seattle Center
Thu 01:31:46 PM 47.9678 -118.7639 255° West 165 190 10,000 -49 Descending Seattle Center
Thu 01:32:47 PM 47.9675 -118.8297 270° West 162 186 10,100 49 Climbing Seattle Center
Thu 01:33:48 PM 47.9703 -118.8972 274° West 164 189 10,100 49 Level Seattle Center
Thu 01:34:49 PM 47.9764 -118.9628 278° West 162 186 10,200 -98 Climbing Seattle Center
Thu 01:35:50 PM 47.9803 -119.0336 275° West 171 197 9,900 -98 Descending Seattle Center
Thu 01:36:51 PM 47.9758 -119.1422 267° West 259 298 10,000 99 Climbing Seattle Center
Thu 01:37:51 PM 47.9731 -119.2528 268° West 268 308 10,100 99 Climbing Seattle Center
Thu 01:38:52 PM 47.9706 -119.3622 268° West 267 307 10,200 -98 Climbing Seattle Center
Thu 01:39:53 PM 47.9714 -119.4739 271° West 269 310 9,900 -148 Descending Seattle Center
Thu 01:40:54 PM 47.9719 -119.5850 270° West 269 310 9,900  Level Seattle Center
Thu 01:41:55 PM 47.9719 -119.6931 270° West 264 304 9,900  Level Seattle Center
Thu 01:42:56 PM 47.9744 -119.8028 272° West 265 305 9,900  Level Seattle Center
Thu 01:43:57 PM 47.9803 -119.9147 274° West 271 312 9,900 49 Level Seattle Center
Thu 01:44:58 PM 47.9872 -120.0247 275° West 270 311 10,000  Climbing Seattle Center
Thu 01:45:59 PM 47.9122 -120.0108 173° South 294 338 9,900 -50 Descending Seattle Center
Thu 01:46:59 PM 47.9064 -119.8867 94° East 301 346 9,900  Level Seattle Center
Thu 01:48:00 PM 47.9022 -119.7589 93° East 307 353 9,900  Level Seattle Center
Thu 01:49:01 PM 47.8961 -119.6325 94° East 307 353 9,900  Level Seattle Center
Thu 01:50:02 PM 47.8919 -119.5075 93° East 304 350 9,900  Level Seattle Center
Thu 01:51:03 PM 47.8900 -119.3825 91° East 303 349 9,900  Level Seattle Center
Thu 01:52:04 PM 47.8886 -119.2564 91° East 305 351 9,900  Level Seattle Center
Thu 01:53:05 PM 47.8842 -119.1317 93° East 304 350 9,900  Level Seattle Center
Thu 01:54:06 PM 47.8797 -119.0033 93° East 310 357 9,900  Level Seattle Center
Thu 01:55:07 PM 47.8764 -118.8772 92° East 307 353 9,900 99 Level Seattle Center
Thu 01:56:07 PM 47.8708 -118.7511 94° East 306 352 10,100 149 Climbing Seattle Center
Thu 01:57:08 PM 47.8664 -118.6242 93° East 309 356 10,200 49 Climbing Seattle Center
Thu 01:58:09 PM 47.8614 -118.4950 93° East 313 360 10,200 -148 Level Seattle Center
Thu 01:59:10 PM 47.8531 -118.3442 95° East 306 352 9,900 -148 Descending Seattle Center
Thu 02:00:11 PM 47.7814 -118.3450 180° South 302 348 9,900  Level Seattle Center
Thu 02:01:12 PM 47.7853 -118.4531 273° West 264 304 9,900 98 Level Seattle Center
Thu 02:02:13 PM 47.7989 -118.5589 281° West 262 302 10,100 98 Climbing Seattle Center
Thu 02:03:14 PM 47.8161 -118.6642 284° West 262 302 10,100 -49 Level Seattle Center
Thu 02:04:15 PM 47.8361 -118.7883 284° West 309 356 10,000  Descending Seattle Center
Thu 02:05:15 PM 47.8597 -118.9172 285° West 323 372 10,100 -99 Climbing Seattle Center
Thu 02:06:16 PM 47.8800 -119.0472 283° West 323 372 9,800 -98 Descending Seattle Center
Thu 02:07:17 PM 47.8939 -119.1767 279° West 319 367 9,900 49 Climbing Seattle Center
Thu 02:08:18 PM 47.9042 -119.3081 277° West 320 368 9,900  Level Seattle Center
Thu 02:09:19 PM 47.9156 -119.4408 277° West 323 372 9,900  Level Seattle Center
Thu 02:10:20 PM 47.9272 -119.5731 278° West 322 371 9,900  Level Seattle Center
Thu 02:11:21 PM 47.9375 -119.7067 277° West 325 374 9,900  Level Seattle Center
Thu 02:12:22 PM 47.9511 -119.8658 277° West 324 373 9,900 49 Level Seattle Center
Thu 02:13:23 PM 47.9442 -119.9967 266° West 334 384 10,000 49 Climbing Seattle Center
Thu 02:14:24 PM 47.8683 -119.9419 154° Southeast 374 430 10,000 -98 Level Seattle Center
Thu 02:15:25 PM 47.8656 -119.7936 92° East 358 412 9,800  Descending Seattle Center
Thu 02:16:26 PM 47.8678 -119.6472 89° East 357 411 10,000 148 Climbing Seattle Center
Thu 02:17:27 PM 47.8717 -119.5000 88° East 356 410 10,100  Climbing Seattle Center
Thu 02:18:28 PM 47.8775 -119.3542 87° East 356 410 10,000 -49 Descending Seattle Center
Thu 02:19:29 PM 47.8819 -119.2078 87° East 355 409 10,000 -49 Level Seattle Center
Thu 02:20:30 PM 47.8858 -119.0583 88° East 359 413 9,900 -49 Descending Seattle Center
Thu 02:21:31 PM 47.8656 -118.8997 101° East 391 450 9,900 49 Level Seattle Center
Thu 02:22:32 PM 47.8489 -118.7286 98° East 416 479 10,000 98 Climbing Seattle Center
Thu 02:23:33 PM 47.8317 -118.5536 98° East 427 491 10,100 99 Climbing Seattle Center
Thu 02:24:33 PM 47.8153 -118.3789 98° East 428 493 10,200 -99 Climbing Seattle Center
Thu 02:25:34 PM 47.7964 -118.1692 98° East 427 491 9,900 -148 Descending Seattle Center
Thu 02:26:35 PM 47.7794 -117.9953 98° East 426 490 9,900  Level Seattle Center
Thu 02:27:37 PM 47.7633 -117.8244 98° East 420 483 9,900 738 Level Seattle Center
Thu 02:28:37 PM 47.7236 -117.6753 112° Southeast 393 452 11,400 248 Climbing Seattle Center
Thu 02:29:38 PM 47.6508 -117.7289 206° Southwest 364 419 10,400 -738 Descending Seattle Center
Thu 02:30:39 PM 47.6633 -117.8747 277° West 359 413 9,900 -246 Descending Seattle Center
Thu 02:31:40 PM 47.6819 -118.0272 280° West 374 430 9,900  Level Seattle Center
Thu 02:32:41 PM 47.7006 -118.1789 280° West 375 432 9,900 49 Level Seattle Center
Thu 02:33:42 PM 47.7194 -118.3306 281° West 376 433 10,000 -49 Climbing Seattle Center
Thu 02:34:43 PM 47.7372 -118.4828 280° West 376 433 9,800 -98 Descending Seattle Center
Thu 02:35:44 PM 47.7547 -118.6350 280° West 376 433 9,800 148 Level Seattle Center
Thu 02:36:45 PM 47.7783 -118.7864 283° West 377 434 10,100 49 Climbing Seattle Center
Thu 02:37:46 PM 47.8181 -118.9656 288° West 382 440 9,900 -98 Descending Seattle Center
Thu 02:38:47 PM 47.8578 -119.1086 293° West 377 434 9,900 49 Level Seattle Center
Thu 02:39:48 PM 47.8753 -119.2603 280° West 381 438 10,000 2,134 Climbing Seattle Center
Thu 02:44:44 PM 47.8990 -120.0160 280° West 361 415 22,600 2,534 Climbing FlightAware ADS-B
Thu 02:45:29 PM 47.9050 -120.1310 274° West 367 422 24,400 2,494 Climbing FlightAware ADS-B
Thu 02:46:01 PM 47.9070 -120.2120 272° West 364 419 25,800 2,952 Climbing FlightAware ADS-B
Thu 02:46:32 PM 47.9070 -120.2870 270° West 350 403 27,500 2,164 Climbing FlightAware ADS-B
Thu 02:47:02 PM 47.9080 -120.3530 271° West 314 361 28,000 400 Climbing FlightAware ADS-B
Thu 02:47:47 PM 47.9080 -120.4440 270° West 345 397 28,000 -75 Level FlightAware ADS-B
Thu 02:48:22 PM 47.9080 -120.5200 270° West 295 339 27,900 -231 Descending FlightAware ADS-B
Thu 02:48:39 PM 47.9080 -120.5520 270° West 294 338 27,800  Descending FlightAware ADS-B
Thu 02:49:29 PM 47.9070 -120.6540 269° West 292 336 27,900 100 Climbing FlightAware ADS-B
Thu 02:50:39 PM 47.9090 -120.7950 271° West 293 337 28,000 58 Climbing FlightAware ADS-B
Thu 02:51:13 PM 47.9160 -120.8640 279° West 292 336 28,000  Level FlightAware ADS-B
Thu 02:52:30 PM 47.9310 -121.0140 279° West 287 330 28,000  Level FlightAware ADS-B
Thu 02:52:55 PM 47.9370 -121.0630 280° West 286 329 28,000  Level FlightAware ADS-B
Thu 02:53:36 PM 47.9500 -121.1400 284° West 285 328 28,000  Level FlightAware ADS-B
Thu 02:54:10 PM 47.9610 -121.2060 284° West 285 328 28,000  Level FlightAware ADS-B
Thu 02:54:45 PM 47.9720 -121.2730 284° West 285 328 28,000  Level FlightAware ADS-B
Thu 02:55:25 PM 47.9850 -121.3490 284° West 287 330 28,000  Level FlightAware ADS-B
Thu 02:55:55 PM 47.9950 -121.4080 284° West 287 330 28,000  Level FlightAware ADS-B
Thu 02:56:26 PM 48.0060 -121.4670 286° West 286 329 28,000  Level FlightAware ADS-B
Thu 02:57:06 PM 48.0200 -121.5440 285° West 290 334 28,000 -75 Level FlightAware ADS-B
Thu 02:57:46 PM 48.0350 -121.6210 286° West 289 333 27,900 -75 Descending FlightAware ADS-B
Thu 02:58:26 PM 48.0500 -121.6990 286° West 289 333 27,900  Level FlightAware ADS-B
Thu 02:59:07 PM 48.0660 -121.7780 287° West 288 331 27,900  Level FlightAware ADS-B
Thu 02:59:52 PM 48.0810 -121.8620 285° West 289 333 27,900  Level FlightAware ADS-B
Thu 03:00:27 PM 48.0920 -121.9340 283° West 289 333 27,900  Level FlightAware ADS-B
Thu 03:00:57 PM 48.0990 -121.9900 281° West 290 334 27,900  Level FlightAware ADS-B
Thu 03:01:41 PM 48.1120 -122.0760 283° West 290 334 27,900 78 Level FlightAware ADS-B
Thu 03:02:14 PM 48.0890 -122.1340 239° Southwest 368 423 28,000 83 Climbing FlightAware ADS-B
Thu 03:02:53 PM 48.0160 -122.1080 167° South 473 544 28,000  Level FlightAware ADS-B
Thu 03:03:35 PM 47.9910 -121.9760 106° East 498 573 28,000 113 Level FlightAware ADS-B
Thu 03:04:39 PM 48.0050 -121.7480 85° East 535 616 28,200 117 Climbing FlightAware ADS-B
Thu 03:05:18 PM 48.0150 -121.5980 84° East 536 617 28,200 -110 Level FlightAware ADS-B
Thu 03:06:28 PM 48.0310 -121.3440 85° East 535 616 28,000 -133 Descending FlightAware ADS-B
Thu 03:06:48 PM 48.0340 -121.2700 87° East 544 626 28,000  Level FlightAware ADS-B
Thu 03:08:03 PM 48.0290 -120.9890 91° East 550 633 28,000  Level FlightAware ADS-B
Thu 03:08:43 PM 48.0270 -120.8400 91° East 548 631 28,000  Level FlightAware ADS-B
Thu 03:09:14 PM 48.0250 -120.7300 92° East 547 629 28,000  Level FlightAware ADS-B
Thu 03:09:44 PM 48.0230 -120.6200 92° East 547 629 28,000  Level FlightAware ADS-B
Thu 03:10:46 PM 48.0150 -120.3710 93° East 545 627 28,000  Level FlightAware ADS-B
Thu 03:11:02 PM 48.0130 -120.3120 93° East 545 627 28,000  Level FlightAware ADS-B
Thu 03:11:42 PM 48.0070 -120.1620 93° East 548 631 28,000  Level FlightAware ADS-B
Thu 03:12:29 PM 48.0010 -119.9880 93° East 550 633 28,000 71 Level FlightAware ADS-B
Thu 03:13:07 PM 47.9970 -119.8500 92° East 548 631 28,100 -79 Climbing FlightAware ADS-B
Thu 03:13:45 PM 47.9910 -119.7040 93° East 546 628 27,900 -160 Descending FlightAware ADS-B
Thu 03:14:22 PM 47.9850 -119.5570 93° East 546 628 27,900 61 Level FlightAware ADS-B
Thu 03:15:24 PM 47.9770 -119.3530 93° East 545 627 28,000 45 Climbing FlightAware ADS-B
Thu 03:16:36 PM 47.9690 -119.1230 93° East 545 627 28,000  Level FlightAware ADS-B
Thu 03:17:00 PM 47.9670 -119.0460 92° East 545 627 28,000  Level FlightAware ADS-B
Thu 03:17:36 PM 47.9620 -118.9310 94° East 545 627 28,000  Level FlightAware ADS-B
Thu 03:18:13 PM 47.9580 -118.8130 93° East 545 627 28,000  Level FlightAware ADS-B
Thu 03:18:37 PM 47.9560 -118.7360 92° East 545 627 28,000  Level FlightAware ADS-B
Thu 03:19:30 PM 47.8942 -118.4147 92° East 603 694 28,000  Level Seattle Center
Thu 03:20:31 PM 47.8767 -118.1600 96° East 617 710 28,000 49 Level Seattle Center
Thu 03:21:32 PM 47.8578 -117.9058 96° East 619 712 28,100 -49 Climbing Seattle Center
Thu 03:22:34 PM 47.8394 -117.6492 96° East 623 717 27,900 -49 Descending Seattle Center
Thu 03:23:35 PM 47.8247 -117.3931 95° East 620 713 28,000 49 Climbing Seattle Center
Thu 03:24:36 PM 47.8089 -117.1344 95° East 618 711 28,000 -49 Level Seattle Center
Thu 03:25:37 PM 47.7911 -116.8750 96° East 619 712 27,900  Descending Seattle Center
Thu 03:26:38 PM 47.7742 -116.6161 95° East 620 713 28,000 49 Climbing Seattle Center
Thu 03:27:39 PM 47.7836 -116.3247 87° East 601 692 28,000  Level Seattle Center
Thu 03:28:40 PM 47.8964 -116.2872 13° North 510 587 28,000 -49 Level Seattle Center
Thu 03:29:41 PM 47.9203 -116.4553 282° West 469 540 27,900 -49 Descending Seattle Center
Thu 03:30:42 PM 47.9072 -116.6450 264° West 466 536 27,900 49 Level Seattle Center
Thu 03:31:43 PM 47.9031 -116.8344 268° West 463 533 28,000 49 Climbing Seattle Center
Thu 03:32:45 PM 47.8997 -117.0239 269° West 463 533 28,000 98 Level Seattle Center
Thu 03:33:46 PM 47.8939 -117.2111 267° West 461 531 28,200 -49 Climbing Seattle Center
Thu 03:34:47 PM 47.8875 -117.3997 267° West 462 532 27,900  Descending Seattle Center
Thu 03:35:48 PM 47.8794 -117.6275 267° West 463 533 28,200 49 Climbing Seattle Center
Thu 03:36:49 PM 47.8711 -117.8164 266° West 463 533 28,000 -98 Descending Seattle Center
Thu 03:37:50 PM 47.8631 -118.0039 266° West 458 527 28,000 197 Level Seattle Center
Thu 03:38:51 PM 47.8614 -118.1886 269° West 449 517 28,400 340 Climbing Seattle Center
Thu 03:43:43 PM 47.9470 -119.0760 269° West 438 504 30,000 291 Climbing FlightAware ADS-B
Thu 03:44:21 PM 47.9550 -119.1860 276° West 440 506 30,000  Level FlightAware ADS-B
Thu 03:44:57 PM 47.9630 -119.2980 276° West 446 513 30,000  Level FlightAware ADS-B
Thu 03:45:26 PM 47.9700 -119.3880 277° West 448 516 30,000  Level FlightAware ADS-B
Thu 03:46:04 PM 47.9780 -119.5020 276° West 445 512 30,000  Level FlightAware ADS-B
Thu 03:46:35 PM 47.9850 -119.5980 276° West 445 512 30,000  Level FlightAware ADS-B
Thu 03:47:09 PM 47.9930 -119.7010 277° West 444 511 30,000  Level FlightAware ADS-B
Thu 03:47:37 PM 47.9990 -119.7860 276° West 441 507 30,000  Level FlightAware ADS-B
Thu 03:48:13 PM 48.0070 -119.8950 276° West 440 506 30,000  Level FlightAware ADS-B
Thu 03:48:45 PM 48.0150 -119.9940 277° West 444 511 30,000  Level FlightAware ADS-B
Thu 03:49:29 PM 48.0240 -120.1250 276° West 442 509 30,000  Level FlightAware ADS-B
Thu 03:50:08 PM 48.0330 -120.2450 276° West 444 511 30,000  Level FlightAware ADS-B
Thu 03:50:52 PM 48.0420 -120.3690 276° West 446 513 30,000  Level FlightAware ADS-B
Thu 03:51:34 PM 48.0530 -120.5060 277° West 446 513 30,000  Level FlightAware ADS-B
Thu 03:52:05 PM 48.0600 -120.6010 276° West 446 513 30,000  Level FlightAware ADS-B
Thu 03:52:53 PM 48.0710 -120.7490 276° West 443 510 30,000  Level FlightAware ADS-B
Thu 03:53:29 PM 48.0800 -120.8570 277° West 446 513 30,000  Level FlightAware ADS-B
Thu 03:54:05 PM 48.0880 -120.9670 276° West 443 510 30,000 62 Level FlightAware ADS-B
Thu 03:55:06 PM 48.1030 -121.1520 277° West 442 509 30,100 1,406 Climbing FlightAware ADS-B
Thu 03:56:13 PM 48.1180 -121.3450 277° West 407 468 33,000 1,912 Climbing FlightAware ADS-B
Thu 03:56:37 PM 48.1220 -121.4120 275° West 414 476 33,000 -91 Level FlightAware ADS-B
Thu 03:57:19 PM 48.0790 -121.5170 239° Southwest 500 575 32,900  Descending FlightAware ADS-B
Thu 03:57:35 PM 48.0410 -121.5290 192° South 541 623 33,000  Climbing FlightAware ADS-B
Thu 03:58:25 PM 47.9330 -121.4280 148° Southeast 612 704 32,900  Descending FlightAware ADS-B
Thu 03:59:05 PM 47.8990 -121.2730 108° East 595 685 33,000 87 Climbing FlightAware ADS-B
Thu 03:59:34 PM 47.9000 -121.1500 89° East 594 684 33,000  Level FlightAware ADS-B
Thu 04:00:14 PM 47.9000 -120.9850 90° East 593 682 33,000  Level FlightAware ADS-B
Thu 04:00:50 PM 47.9010 -120.8400 89° East 592 681 33,000  Level FlightAware ADS-B
Thu 04:01:32 PM 47.9020 -120.6710 89° East 589 678 33,000  Level FlightAware ADS-B
Thu 04:02:12 PM 47.9020 -120.5050 90° East 591 680 33,000  Level FlightAware ADS-B
Thu 04:02:52 PM 47.9030 -120.3480 89° East 590 679 33,000  Level FlightAware ADS-B
Thu 04:03:31 PM 47.9040 -120.1900 89° East 587 676 33,000  Level FlightAware ADS-B
Thu 04:04:34 PM 47.9060 -119.9310 89° East 589 678 33,000  Level FlightAware ADS-B
Thu 04:05:44 PM 47.9080 -119.6490 89° East 591 680 33,000  Level FlightAware ADS-B
Thu 04:06:16 PM 47.9090 -119.5200 89° East 588 677 33,000  Level FlightAware ADS-B
Thu 04:07:05 PM 47.9100 -119.3240 89° East 590 679 33,000  Level FlightAware ADS-B
Thu 04:07:36 PM 47.9110 -119.1940 89° East 588 677 33,000  Level FlightAware ADS-B
Thu 04:08:14 PM 47.9130 -119.0410 89° East 590 679 33,000  Level FlightAware ADS-B
Thu 04:08:51 PM 47.9140 -118.8930 89° East 587 676 33,000  Level FlightAware ADS-B
Thu 04:09:17 PM 47.9150 -118.8040 89° East 587 676 33,000 -1,114 Level FlightAware ADS-B
Thu 04:10:01 PM 47.9140 -118.6310 90° East 579 666 31,700 -975 Descending FlightAware ADS-B
Thu 04:10:37 PM 47.9140 -118.5090 90° East 579 666 31,700  Level FlightAware ADS-B
Thu 04:11:02 PM 47.9140 -118.4240 90° East 579 666 31,700  Level FlightAware ADS-B
Thu 04:11:40 PM 47.9140 -118.2950 90° East 579 666 31,700  Level FlightAware ADS-B
Thu 04:12:16 PM 47.9140 -118.1720 90° East 579 666 31,700  Level FlightAware ADS-B
Thu 04:12:40 PM 47.9140 -118.0910 90° East 579 666 31,700  Level FlightAware ADS-B
Thu 04:13:38 PM 47.9140 -117.8940 90° East 579 666 31,700  Level FlightAware ADS-B
Thu 04:14:40 PM 47.9140 -117.6830 90° East 579 666 31,700  Level FlightAware ADS-B
Thu 04:15:04 PM 47.9140 -117.6020 90° East 579 666 31,700  Level FlightAware ADS-B
Thu 04:15:53 PM 47.9140 -117.4350 90° East 579 666 31,700  Level FlightAware ADS-B
Thu 04:16:28 PM 47.9140 -117.3160 90° East 579 666 31,700  Level FlightAware ADS-B
Thu 04:17:04 PM 47.9140 -117.1940 90° East 579 666 31,700  Level FlightAware ADS-B
Thu 04:18:04 PM 47.9140 -116.9900 90° East 579 666 31,700  Level FlightAware ADS-B
Thu 04:19:05 PM 47.9140 -116.7830 90° East 579 666 31,700 -237 Level FlightAware ADS-B
Thu 04:27:00 PM 47.7899 -117.3333 North  Level FlightAware Approximate
Thu 04:28:00 PM 47.8545 -117.3333 360° North  Level FlightAware Approximate
Thu 04:29:00 PM 47.9191 -117.3333 360° North  Level FlightAware Approximate
Thu 04:30:00 PM 47.9837 -117.3333 360° North  Level FlightAware Approximate
Thu 04:31:00 PM 48.0063 -117.4049 278° West  Level FlightAware Approximate
Thu 04:32:00 PM 48.0147 -117.5006 277° West  Level FlightAware Approximate
Thu 04:33:00 PM 48.0230 -117.5964 277° West  Level FlightAware Approximate
Thu 04:34:00 PM 48.0312 -117.6921 277° West  Level FlightAware Approximate
Thu 04:35:00 PM 48.0233 -117.7870 258° West  Level FlightAware Approximate
Thu 04:36:00 PM 48.0144 -117.8824 266° West  Level FlightAware Approximate
Thu 04:37:00 PM 48.0099 -117.9787 266° West  Level FlightAware Approximate
Thu 04:38:00 PM 48.0053 -118.0750 266° West  Level FlightAware Approximate
Thu 04:39:00 PM 48.0006 -118.1713 266° West  Level FlightAware Approximate
Thu 04:40:00 PM 47.9969 -118.2676 267° West  Level FlightAware Approximate
Thu 04:41:00 PM 47.9933 -118.3640 267° West  Level FlightAware Approximate
Thu 04:42:00 PM 47.9895 -118.4603 267° West  Level FlightAware Approximate
Thu 04:43:00 PM 47.9857 -118.5567 267° West  Level FlightAware Approximate
Thu 04:44:00 PM 47.9798 -118.6527 262° West  Level FlightAware Approximate
Thu 04:45:00 PM 47.9702 -118.7481 262° West  Level FlightAware Approximate
Thu 04:46:00 PM 47.9667 -118.8442 270° West  Level FlightAware Approximate
Thu 04:47:00 PM 47.9667 -118.9406 270° West  Level FlightAware Approximate
Thu 04:48:00 PM 47.9668 -119.0371 270° West  Level FlightAware Approximate
Thu 04:49:00 PM 47.9669 -119.1336 270° West  Level FlightAware Approximate
Thu 04:50:00 PM 47.9669 -119.2300 270° West  Level FlightAware Approximate
Thu 04:51:00 PM 47.9669 -119.3265 270° West  Level FlightAware Approximate
Thu 04:52:00 PM 47.9668 -119.4230 270° West  Level FlightAware Approximate
Thu 04:53:00 PM 47.9684 -119.5194 273° West  Level FlightAware Approximate
Thu 04:54:00 PM 47.9715 -119.6157 273° West  Level FlightAware Approximate
Thu 04:55:00 PM 47.9744 -119.7121 273° West  Level FlightAware Approximate
Thu 04:56:00 PM 47.9773 -119.8085 273° West  Level FlightAware Approximate
Thu 04:57:00 PM 47.9802 -119.9049 273° West  Level FlightAware Approximate
Thu 04:58:00 PM 47.9829 -120.0013 272° West  Level FlightAware Approximate
Thu 04:59:00 PM 47.9714 -119.9375 103° East  Level FlightAware Approximate
Thu 05:00:00 PM 47.9571 -119.8435 103° East  Level FlightAware Approximate
Thu 05:01:00 PM 47.9427 -119.7495 103° East  Level FlightAware Approximate
Thu 05:02:00 PM 47.9283 -119.6555 103° East  Level FlightAware Approximate
Thu 05:03:00 PM 47.9137 -119.5616 103° East  Level FlightAware Approximate
Thu 05:04:00 PM 47.8992 -119.4677 103° East  Level FlightAware Approximate
Thu 05:05:00 PM 47.8845 -119.3739 103° East  Level FlightAware Approximate
Thu 05:06:00 PM 47.8805 -119.2779 93° East  Level FlightAware Approximate
Thu 05:07:00 PM 47.8774 -119.1817 93° East  Level FlightAware Approximate
Thu 05:08:00 PM 47.8742 -119.0855 93° East  Level FlightAware Approximate
Thu 05:09:00 PM 47.8710 -118.9893 93° East  Level FlightAware Approximate
Thu 05:10:00 PM 47.8676 -118.8932 93° East  Level FlightAware Approximate
Thu 05:11:00 PM 47.8542 -118.7995 105° East  Level FlightAware Approximate
Thu 05:12:00 PM 47.8370 -118.7067 105° East  Level FlightAware Approximate
Thu 05:13:00 PM 47.8196 -118.6140 106° East  Level FlightAware Approximate
Thu 05:14:00 PM 47.8022 -118.5214 106° East  Level FlightAware Approximate
Thu 05:15:00 PM 47.7848 -118.4288 106° East  Level FlightAware Approximate
Thu 05:16:00 PM 47.7672 -118.3363 106° East  Level FlightAware Approximate
Thu 05:17:00 PM 47.7281 -118.4065 232° Southwest  Level FlightAware Approximate
Thu 05:18:00 PM 47.6882 -118.4819 232° Southwest  Level FlightAware Approximate
Thu 05:19:00 PM 47.6482 -118.5573 232° Southwest  Level FlightAware Approximate
Thu 05:20:00 PM 47.6270 -118.6299 319° Northwest  Level FlightAware Approximate
Thu 05:21:00 PM 47.6759 -118.6925 319° Northwest  Level FlightAware Approximate
Thu 05:21:02 PM 47.3520 -119.6840 319° Northwest 313 360 16,800  Level FlightAware ADS-B
Thu 05:21:31 PM 47.3710 -119.7380 297° West 314 361 18,800 4,138 Climbing FlightAware ADS-B
Thu 05:25:00 PM 47.2595 -119.4498 120° Southeast  Level Estimated

Login

Don't have an account? Register now (free) for customized features, flight alerts, and more!